sensor_id;sensor_type;location;lat;lon;timestamp;pressure;altitude;pressure_sealevel;temperature;humidity
34983;BME280;21187;50.976;13.720;2022-07-23T00:04:49;98341.56;;;25.30;40.67
34983;BME280;21187;50.976;13.720;2022-07-23T00:09:51;98336.13;;;25.27;40.45
34983;BME280;21187;50.976;13.720;2022-07-23T00:14:53;98324.97;;;25.04;41.03
34983;BME280;21187;50.976;13.720;2022-07-23T00:19:55;98319.88;;;24.90;41.15
34983;BME280;21187;50.976;13.720;2022-07-23T00:24:57;98313.56;;;24.89;41.49
34983;BME280;21187;50.976;13.720;2022-07-23T00:30:19;98314.56;;;24.96;41.46
34983;BME280;21187;50.976;13.720;2022-07-23T00:35:21;98306.69;;;24.94;41.57
34983;BME280;21187;50.976;13.720;2022-07-23T00:40:24;98301.16;;;24.81;41.73
34983;BME280;21187;50.976;13.720;2022-07-23T00:45:27;98312.34;;;24.78;41.68
34983;BME280;21187;50.976;13.720;2022-07-23T00:50:30;98314.34;;;24.64;42.26
34983;BME280;21187;50.976;13.720;2022-07-23T00:55:32;98311.50;;;24.38;42.91
34983;BME280;21187;50.976;13.720;2022-07-23T01:00:34;98314.38;;;24.05;43.89
34983;BME280;21187;50.976;13.720;2022-07-23T01:05:37;98300.25;;;23.87;44.48
34983;BME280;21187;50.976;13.720;2022-07-23T01:10:39;98308.53;;;23.87;44.21
34983;BME280;21187;50.976;13.720;2022-07-23T01:15:41;98296.63;;;23.90;44.41
34983;BME280;21187;50.976;13.720;2022-07-23T01:20:43;98284.00;;;23.89;44.45
34983;BME280;21187;50.976;13.720;2022-07-23T01:25:51;98273.78;;;24.02;44.14
34983;BME280;21187;50.976;13.720;2022-07-23T01:30:54;98273.03;;;24.15;43.91
34983;BME280;21187;50.976;13.720;2022-07-23T01:35:56;98267.41;;;24.18;44.06
34983;BME280;21187;50.976;13.720;2022-07-23T01:41:00;98256.53;;;24.11;44.27
34983;BME280;21187;50.976;13.720;2022-07-23T01:46:05;98250.31;;;24.07;44.18
34983;BME280;21187;50.976;13.720;2022-07-23T01:51:14;98237.16;;;24.11;44.30
34983;BME280;21187;50.976;13.720;2022-07-23T01:56:17;98240.94;;;24.17;44.17
34983;BME280;21187;50.976;13.720;2022-07-23T02:01:22;98235.19;;;24.12;44.29
34983;BME280;21187;50.976;13.720;2022-07-23T02:06:24;98232.97;;;24.06;44.69
34983;BME280;21187;50.976;13.720;2022-07-23T02:11:26;98227.84;;;23.92;45.01
34983;BME280;21187;50.976;13.720;2022-07-23T02:16:28;98225.78;;;23.80;45.42
34983;BME280;21187;50.976;13.720;2022-07-23T02:21:36;98229.84;;;23.75;45.28
34983;BME280;21187;50.976;13.720;2022-07-23T02:26:38;98221.31;;;23.69;45.68
34983;BME280;21187;50.976;13.720;2022-07-23T02:31:41;98233.25;;;23.66;45.65
34983;BME280;21187;50.976;13.720;2022-07-23T02:36:43;98229.09;;;23.74;45.50
34983;BME280;21187;50.976;13.720;2022-07-23T02:41:46;98212.06;;;23.76;45.62
34983;BME280;21187;50.976;13.720;2022-07-23T02:46:48;98200.78;;;23.70;45.73
34983;BME280;21187;50.976;13.720;2022-07-23T02:51:51;98204.97;;;23.75;45.72
34983;BME280;21187;50.976;13.720;2022-07-23T02:56:53;98205.13;;;23.55;46.51
34983;BME280;21187;50.976;13.720;2022-07-23T03:01:55;98204.00;;;23.23;47.34
34983;BME280;21187;50.976;13.720;2022-07-23T03:06:57;98206.47;;;23.34;47.24
34983;BME280;21187;50.976;13.720;2022-07-23T03:11:59;98188.50;;;23.42;46.93
34983;BME280;21187;50.976;13.720;2022-07-23T03:17:01;98192.06;;;23.42;46.72
34983;BME280;21187;50.976;13.720;2022-07-23T03:22:05;98190.28;;;23.49;46.73
34983;BME280;21187;50.976;13.720;2022-07-23T03:27:07;98195.63;;;23.56;46.66
34983;BME280;21187;50.976;13.720;2022-07-23T03:32:10;98194.34;;;23.15;47.94
34983;BME280;21187;50.976;13.720;2022-07-23T03:37:12;98163.59;;;22.96;48.54
34983;BME280;21187;50.976;13.720;2022-07-23T03:42:14;98171.72;;;23.03;48.36
34983;BME280;21187;50.976;13.720;2022-07-23T03:47:19;98164.72;;;22.99;48.53
34983;BME280;21187;50.976;13.720;2022-07-23T03:52:23;98172.03;;;23.05;48.34
34983;BME280;21187;50.976;13.720;2022-07-23T03:57:26;98181.72;;;22.97;48.83
34983;BME280;21187;50.976;13.720;2022-07-23T04:02:28;98191.25;;;22.80;49.20
34983;BME280;21187;50.976;13.720;2022-07-23T04:07:30;98165.78;;;22.72;49.42
34983;BME280;21187;50.976;13.720;2022-07-23T04:12:32;98152.06;;;22.68;49.41
34983;BME280;21187;50.976;13.720;2022-07-23T04:17:34;98151.19;;;22.88;48.88
34983;BME280;21187;50.976;13.720;2022-07-23T04:22:36;98153.59;;;23.02;48.51
34983;BME280;21187;50.976;13.720;2022-07-23T04:27:38;98161.34;;;23.07;48.36
34983;BME280;21187;50.976;13.720;2022-07-23T04:32:40;98170.25;;;22.99;48.69
34983;BME280;21187;50.976;13.720;2022-07-23T04:37:50;98164.47;;;23.09;48.36
34983;BME280;21187;50.976;13.720;2022-07-23T04:42:53;98179.31;;;23.16;48.39
34983;BME280;21187;50.976;13.720;2022-07-23T04:47:55;98175.53;;;23.09;48.66
34983;BME280;21187;50.976;13.720;2022-07-23T04:52:59;98178.38;;;23.06;48.80
34983;BME280;21187;50.976;13.720;2022-07-23T04:58:01;98176.56;;;22.83;49.36
34983;BME280;21187;50.976;13.720;2022-07-23T05:03:03;98173.47;;;22.81;49.53
34983;BME280;21187;50.976;13.720;2022-07-23T05:08:06;98174.31;;;22.94;49.12
34983;BME280;21187;50.976;13.720;2022-07-23T05:13:11;98182.09;;;22.99;49.18
34983;BME280;21187;50.976;13.720;2022-07-23T05:18:15;98183.44;;;23.07;49.13
34983;BME280;21187;50.976;13.720;2022-07-23T05:23:18;98175.84;;;23.12;48.85
34983;BME280;21187;50.976;13.720;2022-07-23T05:28:22;98208.06;;;23.18;48.95
34983;BME280;21187;50.976;13.720;2022-07-23T05:33:26;98223.34;;;23.23;48.79
34983;BME280;21187;50.976;13.720;2022-07-23T05:38:29;98214.53;;;23.28;48.77
34983;BME280;21187;50.976;13.720;2022-07-23T05:43:33;98235.94;;;23.24;48.95
34983;BME280;21187;50.976;13.720;2022-07-23T05:48:42;98256.31;;;23.30;48.83
34983;BME280;21187;50.976;13.720;2022-07-23T05:54:07;98248.38;;;23.32;48.92
34983;BME280;21187;50.976;13.720;2022-07-23T05:59:12;98268.72;;;23.38;48.83
34983;BME280;21187;50.976;13.720;2022-07-23T06:04:16;98292.75;;;23.25;49.15
34983;BME280;21187;50.976;13.720;2022-07-23T06:09:29;98309.50;;;23.18;49.13
34983;BME280;21187;50.976;13.720;2022-07-23T06:14:31;98317.00;;;23.17;48.92
34983;BME280;21187;50.976;13.720;2022-07-23T06:19:33;98323.13;;;23.08;49.02
34983;BME280;21187;50.976;13.720;2022-07-23T06:24:35;98326.47;;;23.00;49.23
34983;BME280;21187;50.976;13.720;2022-07-23T06:29:38;98330.09;;;22.97;49.09
34983;BME280;21187;50.976;13.720;2022-07-23T06:34:42;98334.50;;;22.94;49.03
34983;BME280;21187;50.976;13.720;2022-07-23T06:39:49;98328.09;;;22.97;48.86
34983;BME280;21187;50.976;13.720;2022-07-23T06:44:51;98320.19;;;22.99;48.79
34983;BME280;21187;50.976;13.720;2022-07-23T06:49:53;98316.13;;;23.04;48.75
34983;BME280;21187;50.976;13.720;2022-07-23T06:54:55;98327.25;;;23.00;48.65
34983;BME280;21187;50.976;13.720;2022-07-23T06:59:57;98318.78;;;22.91;48.88
34983;BME280;21187;50.976;13.720;2022-07-23T07:04:59;98321.19;;;22.89;48.77
34983;BME280;21187;50.976;13.720;2022-07-23T07:10:07;98322.25;;;22.95;48.99
34983;BME280;21187;50.976;13.720;2022-07-23T07:15:16;98300.53;;;23.14;48.68
34983;BME280;21187;50.976;13.720;2022-07-23T07:20:18;98301.72;;;23.29;48.45
34983;BME280;21187;50.976;13.720;2022-07-23T07:25:19;98299.19;;;23.51;48.28
34983;BME280;21187;50.976;13.720;2022-07-23T07:30:22;98308.47;;;23.74;47.94
34983;BME280;21187;50.976;13.720;2022-07-23T07:35:24;98312.50;;;24.02;47.39
34983;BME280;21187;50.976;13.720;2022-07-23T07:40:27;98307.50;;;24.39;47.30
34983;BME280;21187;50.976;13.720;2022-07-23T07:45:34;98322.25;;;24.62;46.75
34983;BME280;21187;50.976;13.720;2022-07-23T07:50:36;98324.50;;;24.67;46.42
34983;BME280;21187;50.976;13.720;2022-07-23T07:55:38;98320.75;;;24.87;46.32
34983;BME280;21187;50.976;13.720;2022-07-23T08:00:40;98327.06;;;24.87;45.77
34983;BME280;21187;50.976;13.720;2022-07-23T08:05:43;98296.84;;;24.93;46.02
34983;BME280;21187;50.976;13.720;2022-07-23T08:10:45;98294.16;;;25.02;45.84
34983;BME280;21187;50.976;13.720;2022-07-23T08:15:48;98310.34;;;25.17;45.33
34983;BME280;21187;50.976;13.720;2022-07-23T08:20:50;98297.03;;;25.12;45.30
34983;BME280;21187;50.976;13.720;2022-07-23T08:25:52;98298.09;;;25.27;45.26
34983;BME280;21187;50.976;13.720;2022-07-23T08:30:54;98293.59;;;25.68;44.84
34983;BME280;21187;50.976;13.720;2022-07-23T08:35:56;98288.56;;;25.98;44.00
34983;BME280;21187;50.976;13.720;2022-07-23T08:40:59;98294.66;;;26.28;43.48
34983;BME280;21187;50.976;13.720;2022-07-23T08:46:02;98296.47;;;26.22;43.64
34983;BME280;21187;50.976;13.720;2022-07-23T08:51:05;98295.34;;;26.41;43.27
34983;BME280;21187;50.976;13.720;2022-07-23T08:56:08;98298.13;;;26.41;43.04
34983;BME280;21187;50.976;13.720;2022-07-23T09:01:10;98305.19;;;26.33;42.73
34983;BME280;21187;50.976;13.720;2022-07-23T09:06:12;98304.31;;;26.46;42.53
34983;BME280;21187;50.976;13.720;2022-07-23T09:11:17;98305.31;;;26.61;42.23
34983;BME280;21187;50.976;13.720;2022-07-23T09:16:28;98313.69;;;26.70;42.18
34983;BME280;21187;50.976;13.720;2022-07-23T09:21:40;98306.59;;;26.69;41.79
34983;BME280;21187;50.976;13.720;2022-07-23T09:26:46;98309.16;;;26.86;42.00
34983;BME280;21187;50.976;13.720;2022-07-23T09:37:13;98314.56;;;26.89;41.74
34983;BME280;21187;50.976;13.720;2022-07-23T09:47:23;98331.69;;;26.88;41.84
34983;BME280;21187;50.976;13.720;2022-07-23T09:52:29;98342.50;;;26.86;41.65
34983;BME280;21187;50.976;13.720;2022-07-23T09:57:36;98346.81;;;26.87;41.87
34983;BME280;21187;50.976;13.720;2022-07-23T10:02:41;98342.59;;;27.04;41.49
34983;BME280;21187;50.976;13.720;2022-07-23T10:08:02;98338.09;;;27.38;41.21
34983;BME280;21187;50.976;13.720;2022-07-23T10:13:10;98347.56;;;27.69;40.71
34983;BME280;21187;50.976;13.720;2022-07-23T10:18:23;98337.50;;;27.90;40.33
34983;BME280;21187;50.976;13.720;2022-07-23T10:23:35;98333.16;;;28.26;39.68
34983;BME280;21187;50.976;13.720;2022-07-23T10:39:11;98343.66;;;28.50;38.91
34983;BME280;21187;50.976;13.720;2022-07-23T10:44:21;98357.84;;;28.61;38.94
34983;BME280;21187;50.976;13.720;2022-07-23T10:49:32;98348.19;;;28.90;38.26
34983;BME280;21187;50.976;13.720;2022-07-23T10:54:35;98362.94;;;29.15;38.08
34983;BME280;21187;50.976;13.720;2022-07-23T11:00:15;98356.66;;;29.38;37.76
34983;BME280;21187;50.976;13.720;2022-07-23T11:05:22;98366.56;;;29.40;37.21
34983;BME280;21187;50.976;13.720;2022-07-23T11:31:54;98360.63;;;29.95;36.08
34983;BME280;21187;50.976;13.720;2022-07-23T11:36:56;98369.78;;;29.71;36.12
34983;BME280;21187;50.976;13.720;2022-07-23T11:42:00;98360.13;;;29.58;36.24
34983;BME280;21187;50.976;13.720;2022-07-23T11:47:08;98357.19;;;29.52;36.40
34983;BME280;21187;50.976;13.720;2022-07-23T11:52:13;98354.13;;;29.50;36.34
34983;BME280;21187;50.976;13.720;2022-07-23T11:57:15;98358.69;;;29.38;36.36
34983;BME280;21187;50.976;13.720;2022-07-23T12:02:20;98361.72;;;29.16;36.89
34983;BME280;21187;50.976;13.720;2022-07-23T12:07:39;98363.03;;;28.96;37.08
34983;BME280;21187;50.976;13.720;2022-07-23T12:12:51;98357.88;;;28.70;37.57
34983;BME280;21187;50.976;13.720;2022-07-23T12:17:54;98376.78;;;28.38;37.83
34983;BME280;21187;50.976;13.720;2022-07-23T12:22:59;98380.81;;;28.10;38.13
34983;BME280;21187;50.976;13.720;2022-07-23T12:28:09;98392.09;;;27.97;38.39
34983;BME280;21187;50.976;13.720;2022-07-23T12:33:14;98385.88;;;27.83;39.05
34983;BME280;21187;50.976;13.720;2022-07-23T12:38:19;98382.94;;;27.78;39.08
34983;BME280;21187;50.976;13.720;2022-07-23T12:43:23;98400.41;;;27.69;39.45
34983;BME280;21187;50.976;13.720;2022-07-23T12:48:28;98387.88;;;27.64;39.47
34983;BME280;21187;50.976;13.720;2022-07-23T12:53:38;98389.91;;;27.64;39.56
34983;BME280;21187;50.976;13.720;2022-07-23T13:04:14;98395.28;;;27.58;39.96
34983;BME280;21187;50.976;13.720;2022-07-23T13:14:22;98403.97;;;27.79;39.83
34983;BME280;21187;50.976;13.720;2022-07-23T13:19:25;98406.00;;;27.87;39.65
34983;BME280;21187;50.976;13.720;2022-07-23T13:24:28;98410.78;;;27.87;39.53
34983;BME280;21187;50.976;13.720;2022-07-23T13:29:30;98407.09;;;27.90;39.64
34983;BME280;21187;50.976;13.720;2022-07-23T13:34:32;98401.06;;;27.92;39.61
34983;BME280;21187;50.976;13.720;2022-07-23T13:39:35;98412.03;;;27.95;39.59
34983;BME280;21187;50.976;13.720;2022-07-23T13:44:39;98412.66;;;27.99;39.52
34983;BME280;21187;50.976;13.720;2022-07-23T13:49:41;98414.56;;;28.12;39.31
34983;BME280;21187;50.976;13.720;2022-07-23T13:54:49;98409.59;;;28.16;39.26
34983;BME280;21187;50.976;13.720;2022-07-23T13:59:51;98413.13;;;28.07;39.34
34983;BME280;21187;50.976;13.720;2022-07-23T14:04:53;98403.72;;;28.04;39.38
34983;BME280;21187;50.976;13.720;2022-07-23T14:09:55;98411.44;;;28.10;39.14
34983;BME280;21187;50.976;13.720;2022-07-23T14:14:58;98406.53;;;28.14;39.25
34983;BME280;21187;50.976;13.720;2022-07-23T14:20:01;98401.25;;;28.16;39.18
34983;BME280;21187;50.976;13.720;2022-07-23T14:25:04;98404.03;;;28.16;39.22
34983;BME280;21187;50.976;13.720;2022-07-23T14:30:09;98397.84;;;28.21;39.23
34983;BME280;21187;50.976;13.720;2022-07-23T14:35:12;98401.56;;;28.27;39.02
34983;BME280;21187;50.976;13.720;2022-07-23T14:40:14;98398.41;;;28.53;38.69
34983;BME280;21187;50.976;13.720;2022-07-23T14:45:16;98397.19;;;28.54;38.61
34983;BME280;21187;50.976;13.720;2022-07-23T14:50:19;98409.56;;;28.53;38.64
34983;BME280;21187;50.976;13.720;2022-07-23T14:55:21;98408.00;;;28.52;38.62
34983;BME280;21187;50.976;13.720;2022-07-23T15:00:25;98391.28;;;28.52;38.26
34983;BME280;21187;50.976;13.720;2022-07-23T15:05:27;98405.69;;;28.50;38.26
34983;BME280;21187;50.976;13.720;2022-07-23T15:10:30;98411.59;;;28.43;38.22
34983;BME280;21187;50.976;13.720;2022-07-23T15:15:32;98424.91;;;28.39;38.20
34983;BME280;21187;50.976;13.720;2022-07-23T15:20:35;98411.13;;;28.35;38.28
34983;BME280;21187;50.976;13.720;2022-07-23T15:25:41;98420.25;;;28.36;38.33
34983;BME280;21187;50.976;13.720;2022-07-23T15:30:51;98412.22;;;28.29;38.12
34983;BME280;21187;50.976;13.720;2022-07-23T15:35:55;98398.59;;;28.12;38.24
34983;BME280;21187;50.976;13.720;2022-07-23T15:40:58;98412.03;;;27.95;38.42
34983;BME280;21187;50.976;13.720;2022-07-23T15:46:00;98404.59;;;27.92;38.74
34983;BME280;21187;50.976;13.720;2022-07-23T15:51:03;98399.38;;;27.94;38.29
34983;BME280;21187;50.976;13.720;2022-07-23T15:56:14;98400.75;;;27.99;38.26
34983;BME280;21187;50.976;13.720;2022-07-23T16:01:17;98404.13;;;27.84;38.29
34983;BME280;21187;50.976;13.720;2022-07-23T16:06:21;98412.00;;;27.77;38.34
34983;BME280;21187;50.976;13.720;2022-07-23T16:11:24;98395.94;;;27.81;38.24
34983;BME280;21187;50.976;13.720;2022-07-23T16:16:26;98405.19;;;27.78;38.32
34983;BME280;21187;50.976;13.720;2022-07-23T16:21:29;98408.44;;;27.76;38.55
34983;BME280;21187;50.976;13.720;2022-07-23T16:26:32;98416.91;;;27.54;38.74
34983;BME280;21187;50.976;13.720;2022-07-23T16:31:34;98416.94;;;27.32;39.14
34983;BME280;21187;50.976;13.720;2022-07-23T16:36:36;98419.50;;;27.39;39.04
34983;BME280;21187;50.976;13.720;2022-07-23T16:41:38;98418.09;;;27.44;39.06
34983;BME280;21187;50.976;13.720;2022-07-23T16:46:40;98404.47;;;27.36;39.01
34983;BME280;21187;50.976;13.720;2022-07-23T16:51:43;98409.47;;;27.42;38.84
34983;BME280;21187;50.976;13.720;2022-07-23T16:56:45;98410.09;;;27.46;38.74
34983;BME280;21187;50.976;13.720;2022-07-23T17:01:47;98424.31;;;27.48;38.73
34983;BME280;21187;50.976;13.720;2022-07-23T17:06:49;98421.50;;;27.38;39.10
34983;BME280;21187;50.976;13.720;2022-07-23T17:11:51;98414.00;;;27.26;39.05
34983;BME280;21187;50.976;13.720;2022-07-23T17:16:54;98421.13;;;27.27;39.02
34983;BME280;21187;50.976;13.720;2022-07-23T17:21:56;98411.25;;;27.35;39.06
34983;BME280;21187;50.976;13.720;2022-07-23T17:26:58;98415.03;;;27.42;39.00
34983;BME280;21187;50.976;13.720;2022-07-23T17:32:06;98423.81;;;27.40;38.90
34983;BME280;21187;50.976;13.720;2022-07-23T17:37:08;98430.78;;;27.45;38.86
34983;BME280;21187;50.976;13.720;2022-07-23T17:42:11;98441.31;;;27.50;38.64
34983;BME280;21187;50.976;13.720;2022-07-23T17:47:12;98444.09;;;27.50;38.54
34983;BME280;21187;50.976;13.720;2022-07-23T17:52:14;98446.56;;;27.48;38.45
34983;BME280;21187;50.976;13.720;2022-07-23T17:57:16;98450.78;;;27.30;38.49
34983;BME280;21187;50.976;13.720;2022-07-23T18:02:18;98459.22;;;27.17;38.58
34983;BME280;21187;50.976;13.720;2022-07-23T18:07:20;98455.66;;;27.17;38.68
34983;BME280;21187;50.976;13.720;2022-07-23T18:12:22;98457.78;;;27.03;38.77
34983;BME280;21187;50.976;13.720;2022-07-23T18:17:24;98447.81;;;26.93;38.87
34983;BME280;21187;50.976;13.720;2022-07-23T18:22:27;98460.50;;;26.94;38.58
34983;BME280;21187;50.976;13.720;2022-07-23T18:27:29;98469.13;;;26.96;38.43
34983;BME280;21187;50.976;13.720;2022-07-23T18:32:32;98465.72;;;26.92;38.54
34983;BME280;21187;50.976;13.720;2022-07-23T18:37:35;98477.75;;;26.89;38.43
34983;BME280;21187;50.976;13.720;2022-07-23T18:42:38;98483.91;;;26.84;38.41
34983;BME280;21187;50.976;13.720;2022-07-23T18:47:40;98488.63;;;26.74;38.41
34983;BME280;21187;50.976;13.720;2022-07-23T18:52:42;98486.44;;;26.56;38.41
34983;BME280;21187;50.976;13.720;2022-07-23T18:57:45;98500.16;;;26.50;38.74
34983;BME280;21187;50.976;13.720;2022-07-23T19:02:47;98499.53;;;26.33;38.63
34983;BME280;21187;50.976;13.720;2022-07-23T19:07:49;98502.69;;;26.22;38.96
34983;BME280;21187;50.976;13.720;2022-07-23T19:12:52;98515.31;;;26.23;38.80
34983;BME280;21187;50.976;13.720;2022-07-23T19:17:54;98517.97;;;26.27;38.87
34983;BME280;21187;50.976;13.720;2022-07-23T19:22:57;98524.66;;;26.17;38.82
34983;BME280;21187;50.976;13.720;2022-07-23T19:27:59;98523.91;;;26.03;39.04
34983;BME280;21187;50.976;13.720;2022-07-23T19:33:01;98523.47;;;25.92;39.03
34983;BME280;21187;50.976;13.720;2022-07-23T19:38:04;98523.38;;;25.83;39.24
34983;BME280;21187;50.976;13.720;2022-07-23T19:43:06;98525.03;;;25.80;39.24
34983;BME280;21187;50.976;13.720;2022-07-23T19:48:08;98531.00;;;25.79;39.33
34983;BME280;21187;50.976;13.720;2022-07-23T19:53:10;98534.66;;;25.75;39.37
34983;BME280;21187;50.976;13.720;2022-07-23T19:58:13;98536.44;;;25.69;39.30
34983;BME280;21187;50.976;13.720;2022-07-23T20:03:15;98548.31;;;25.57;39.68
34983;BME280;21187;50.976;13.720;2022-07-23T20:08:21;98543.88;;;25.47;39.38
34983;BME280;21187;50.976;13.720;2022-07-23T20:13:23;98552.50;;;25.36;39.57
34983;BME280;21187;50.976;13.720;2022-07-23T20:18:30;98552.44;;;25.23;40.05
34983;BME280;21187;50.976;13.720;2022-07-23T20:23:32;98558.19;;;25.16;40.29
34983;BME280;21187;50.976;13.720;2022-07-23T20:28:34;98569.59;;;25.05;40.26
34983;BME280;21187;50.976;13.720;2022-07-23T20:33:36;98570.97;;;24.97;40.11
34983;BME280;21187;50.976;13.720;2022-07-23T20:38:38;98572.31;;;24.92;40.31
34983;BME280;21187;50.976;13.720;2022-07-23T20:43:41;98577.19;;;24.88;40.60
34983;BME280;21187;50.976;13.720;2022-07-23T20:48:44;98579.13;;;24.74;40.90
34983;BME280;21187;50.976;13.720;2022-07-23T20:53:47;98580.84;;;24.68;40.92
34983;BME280;21187;50.976;13.720;2022-07-23T20:58:50;98589.69;;;24.63;41.19
34983;BME280;21187;50.976;13.720;2022-07-23T21:03:53;98594.00;;;24.48;41.55
34983;BME280;21187;50.976;13.720;2022-07-23T21:08:55;98594.50;;;24.42;41.54
34983;BME280;21187;50.976;13.720;2022-07-23T21:13:57;98599.19;;;24.29;41.77
34983;BME280;21187;50.976;13.720;2022-07-23T21:18:59;98604.84;;;23.89;42.94
34983;BME280;21187;50.976;13.720;2022-07-23T21:24:01;98602.91;;;23.69;43.14
34983;BME280;21187;50.976;13.720;2022-07-23T21:29:03;98609.19;;;23.70;43.22
34983;BME280;21187;50.976;13.720;2022-07-23T21:34:07;98601.50;;;23.61;43.45
34983;BME280;21187;50.976;13.720;2022-07-23T21:39:09;98614.38;;;23.48;43.60
34983;BME280;21187;50.976;13.720;2022-07-23T21:44:12;98608.31;;;23.36;43.99
34983;BME280;21187;50.976;13.720;2022-07-23T21:49:14;98623.22;;;23.42;43.88
34983;BME280;21187;50.976;13.720;2022-07-23T21:54:16;98630.28;;;23.43;43.73
34983;BME280;21187;50.976;13.720;2022-07-23T21:59:18;98637.38;;;23.45;43.62
34983;BME280;21187;50.976;13.720;2022-07-23T22:04:20;98645.31;;;23.42;43.71
34983;BME280;21187;50.976;13.720;2022-07-23T22:09:22;98650.84;;;23.42;43.63
34983;BME280;21187;50.976;13.720;2022-07-23T22:14:24;98649.63;;;23.43;43.66
34983;BME280;21187;50.976;13.720;2022-07-23T22:19:26;98653.25;;;23.40;43.67
34983;BME280;21187;50.976;13.720;2022-07-23T22:24:28;98647.00;;;23.36;43.88
34983;BME280;21187;50.976;13.720;2022-07-23T22:29:30;98646.44;;;23.25;43.76
34983;BME280;21187;50.976;13.720;2022-07-23T22:34:32;98647.28;;;22.98;44.17
34983;BME280;21187;50.976;13.720;2022-07-23T22:39:34;98646.91;;;22.96;44.21
34983;BME280;21187;50.976;13.720;2022-07-23T22:44:35;98651.06;;;22.84;44.53
34983;BME280;21187;50.976;13.720;2022-07-23T22:49:37;98658.72;;;22.76;44.64
34983;BME280;21187;50.976;13.720;2022-07-23T22:54:40;98659.53;;;22.73;44.60
34983;BME280;21187;50.976;13.720;2022-07-23T22:59:42;98660.41;;;22.70;44.45
34983;BME280;21187;50.976;13.720;2022-07-23T23:04:44;98659.19;;;22.71;44.33
34983;BME280;21187;50.976;13.720;2022-07-23T23:09:46;98661.59;;;22.69;44.29
34983;BME280;21187;50.976;13.720;2022-07-23T23:14:47;98657.25;;;22.68;44.22
34983;BME280;21187;50.976;13.720;2022-07-23T23:19:49;98664.06;;;22.64;44.24
34983;BME280;21187;50.976;13.720;2022-07-23T23:24:51;98663.72;;;22.58;44.11
34983;BME280;21187;50.976;13.720;2022-07-23T23:29:53;98665.31;;;22.32;44.70
34983;BME280;21187;50.976;13.720;2022-07-23T23:34:55;98664.72;;;22.17;44.73
34983;BME280;21187;50.976;13.720;2022-07-23T23:39:57;98668.78;;;22.08;44.80
34983;BME280;21187;50.976;13.720;2022-07-23T23:44:59;98675.22;;;21.98;44.88
34983;BME280;21187;50.976;13.720;2022-07-23T23:50:02;98673.31;;;21.95;44.82
34983;BME280;21187;50.976;13.720;2022-07-23T23:55:04;98678.47;;;21.89;44.79
